Time;durP1;ratioP1;P1;durP2;ratioP2;P2;SDS_P1;SDS_P2;PMS_P1;PMS_P2;Temp;Humidity;BMP_temperature;BMP_pressure;BME280_temperature;BME280_humidity;BME280_pressure;Samples;Min_cycle;Max_cycle;Signal;HPM_P1;HPM_P2
2024/04/15 00:01:17;;;;;;;9.98;5.43;;;18.10;99.90;;;;;;5468624;26;20021;-73
2024/04/15 00:03:42;;;;;;;9.80;4.70;;;18.30;99.90;;;;;;5467319;26;20066;-73
2024/04/15 00:06:08;;;;;;;15.63;5.20;;;18.30;99.90;;;;;;5465413;26;20010;-73
2024/04/15 00:08:34;;;;;;;9.75;5.45;;;18.30;99.90;;;;;;5464799;26;20103;-73
2024/04/15 00:11:04;;;;;;;11.32;5.38;;;18.40;99.90;;;;;;5468117;26;20017;-73
2024/04/15 00:13:29;;;;;;;8.73;5.43;;;18.50;99.90;;;;;;5468858;26;19998;-73
2024/04/15 00:15:56;;;;;;;11.02;6.25;;;18.50;99.90;;;;;;5467915;26;20009;-73
2024/04/15 00:18:22;;;;;;;9.50;5.88;;;18.70;99.90;;;;;;5466106;26;20014;-73
2024/04/15 00:20:48;;;;;;;8.02;4.63;;;18.60;99.90;;;;;;5461705;26;20470;-73
2024/04/15 00:23:14;;;;;;;8.57;5.13;;;18.40;99.90;;;;;;5468290;26;20037;-73
2024/04/15 00:25:39;;;;;;;10.93;6.28;;;18.20;99.90;;;;;;5465609;26;20025;-73
2024/04/15 00:28:05;;;;;;;9.55;5.65;;;18.20;99.90;;;;;;5468379;26;20076;-73
2024/04/15 00:30:32;;;;;;;10.95;5.78;;;18.20;99.90;;;;;;5466294;26;20037;-73
2024/04/15 00:32:58;;;;;;;15.05;5.45;;;18.20;99.90;;;;;;5469769;26;20030;-73
2024/04/15 00:35:23;;;;;;;13.07;5.90;;;18.20;99.90;;;;;;5465850;26;19998;-73
2024/04/15 00:37:49;;;;;;;13.95;6.78;;;18.10;99.90;;;;;;5469595;26;20002;-73
2024/04/15 00:40:15;;;;;;;15.25;6.45;;;18.10;99.90;;;;;;5469081;26;20005;-73
2024/04/15 00:42:41;;;;;;;13.00;5.72;;;18.10;99.90;;;;;;5462186;26;20006;-73
2024/04/15 00:45:31;;;;;;;13.38;6.20;;;18.10;99.90;;;;;;5467084;26;20037;-73
2024/04/15 00:48:13;;;;;;;15.25;5.82;;;18.00;99.90;;;;;;5465840;26;20471;-73
2024/04/15 00:50:41;;;;;;;10.55;5.75;;;18.00;99.90;;;;;;5467244;26;19998;-73
2024/04/15 00:53:08;;;;;;;9.82;6.10;;;17.90;99.90;;;;;;5466919;26;19999;-73
2024/04/15 00:55:36;;;;;;;9.65;5.50;;;17.90;99.90;;;;;;5466487;26;20006;-73
2024/04/15 00:58:03;;;;;;;10.50;5.72;;;17.90;99.90;;;;;;5462108;26;20016;-74
2024/04/15 01:00:30;;;;;;;12.82;6.03;;;17.90;99.90;;;;;;5462598;26;21638;-73
2024/04/15 01:02:56;;;;;;;10.82;5.50;;;17.80;99.90;;;;;;5464850;26;20011;-73
2024/04/15 01:05:23;;;;;;;10.02;5.88;;;17.80;99.90;;;;;;5466837;26;20050;-73
2024/04/15 01:07:49;;;;;;;8.73;5.07;;;17.80;99.90;;;;;;5466944;26;20006;-73
2024/04/15 01:10:15;;;;;;;9.38;5.25;;;17.80;99.90;;;;;;5466299;26;19998;-73
2024/04/15 01:12:43;;;;;;;11.32;5.97;;;17.90;99.90;;;;;;5466171;26;20006;-73
2024/04/15 01:15:09;;;;;;;10.70;6.30;;;17.80;99.90;;;;;;5467013;26;20333;-73
2024/04/15 01:17:35;;;;;;;7.68;5.00;;;17.80;99.90;;;;;;5466397;26;20038;-73
2024/04/15 01:20:00;;;;;;;7.90;4.72;;;17.80;99.90;;;;;;5465232;26;20009;-73
2024/04/15 01:22:33;;;;;;;10.68;5.93;;;17.80;99.90;;;;;;5465993;26;20021;-73
2024/04/15 01:25:01;;;;;;;9.45;5.45;;;17.80;99.90;;;;;;5467004;26;19994;-73
2024/04/15 01:27:27;;;;;;;13.38;7.47;;;17.70;99.90;;;;;;5465331;26;20378;-73
2024/04/15 01:29:53;;;;;;;10.60;5.95;;;17.60;99.90;;;;;;5467227;26;20582;-73
2024/04/15 01:32:19;;;;;;;7.85;5.20;;;17.60;99.90;;;;;;5463674;26;20006;-73
2024/04/15 01:34:44;;;;;;;11.02;5.95;;;17.50;99.90;;;;;;5465728;26;20005;-73
2024/04/15 01:37:10;;;;;;;12.05;5.82;;;17.40;99.90;;;;;;5460743;26;19994;-73
2024/04/15 01:39:35;;;;;;;8.70;5.82;;;17.40;99.90;;;;;;5468740;26;20349;-73
2024/04/15 01:42:01;;;;;;;16.67;5.82;;;17.40;99.90;;;;;;5466295;26;20001;-73
2024/04/15 01:44:26;;;;;;;16.52;5.53;;;17.40;99.90;;;;;;5465957;26;20488;-73
2024/04/15 01:46:52;;;;;;;13.35;6.75;;;17.40;99.90;;;;;;5465649;26;19993;-73
2024/04/15 01:49:18;;;;;;;8.48;5.10;;;17.50;99.90;;;;;;5465032;26;20009;-73
2024/04/15 01:51:43;;;;;;;9.65;5.85;;;17.60;99.90;;;;;;5463341;26;20348;-73
2024/04/15 01:54:09;;;;;;;14.95;6.00;;;17.60;99.90;;;;;;5466568;26;20704;-73
2024/04/15 01:56:34;;;;;;;9.98;6.43;;;17.50;99.90;;;;;;5467142;26;20006;-73
2024/04/15 01:59:00;;;;;;;15.75;6.43;;;17.50;99.90;;;;;;5466226;26;20048;-73
2024/04/15 02:01:25;;;;;;;9.25;4.72;;;17.50;99.90;;;;;;5467167;26;20018;-73
2024/04/15 02:03:51;;;;;;;9.70;5.88;;;17.40;99.90;;;;;;5463546;26;20131;-73
2024/04/15 02:06:17;;;;;;;10.60;5.88;;;17.20;99.90;;;;;;5466706;26;20947;-73
2024/04/15 02:08:42;;;;;;;14.82;6.18;;;17.30;99.90;;;;;;5468231;26;20078;-73
2024/04/15 02:11:08;;;;;;;17.00;5.82;;;17.30;99.90;;;;;;5466062;26;20026;-73
2024/04/15 02:13:33;;;;;;;11.05;6.22;;;17.20;99.90;;;;;;5465526;26;20002;-73
2024/04/15 02:15:59;;;;;;;12.38;6.80;;;17.20;99.90;;;;;;5463957;26;20017;-73
2024/04/15 02:18:25;;;;;;;10.38;6.43;;;17.20;99.90;;;;;;5463722;26;20009;-73
2024/04/15 02:20:50;;;;;;;12.02;6.25;;;17.20;99.90;;;;;;5464945;26;20013;-73
2024/04/15 02:23:16;;;;;;;13.43;7.47;;;17.20;99.90;;;;;;5465792;26;20009;-73
2024/04/15 02:25:42;;;;;;;12.18;7.05;;;17.20;99.90;;;;;;5465550;26;20810;-73
2024/04/15 02:28:07;;;;;;;11.45;6.53;;;17.20;99.90;;;;;;5465282;26;20544;-73
2024/04/15 02:30:33;;;;;;;12.55;6.30;;;17.30;99.90;;;;;;5466081;26;20019;-73
2024/04/15 02:32:58;;;;;;;9.20;5.32;;;17.40;99.90;;;;;;5465774;26;20025;-73
2024/04/15 02:35:24;;;;;;;12.13;6.38;;;17.30;99.90;;;;;;5466161;26;20013;-73
2024/04/15 02:37:50;;;;;;;9.48;6.13;;;17.10;99.90;;;;;;5468558;26;20006;-73
2024/04/15 02:40:15;;;;;;;12.25;6.20;;;17.30;99.90;;;;;;5464427;26;20477;-73
2024/04/15 02:42:41;;;;;;;9.93;5.93;;;17.30;99.90;;;;;;5462006;26;20006;-73
2024/04/15 02:45:07;;;;;;;8.32;5.18;;;17.20;99.90;;;;;;5465643;26;19994;-73
2024/04/15 02:47:33;;;;;;;11.13;5.60;;;17.20;99.90;;;;;;5467378;26;20659;-73
2024/04/15 02:49:59;;;;;;;11.80;7.05;;;17.10;99.90;;;;;;5468062;26;21046;-73
2024/04/15 02:52:24;;;;;;;11.75;6.57;;;17.10;99.90;;;;;;5468192;26;20012;-73
2024/04/15 02:54:50;;;;;;;11.85;6.38;;;17.20;99.90;;;;;;5468450;26;20564;-73
2024/04/15 02:57:16;;;;;;;15.68;6.82;;;17.10;99.90;;;;;;5469378;26;19998;-73
2024/04/15 02:59:41;;;;;;;20.00;6.78;;;17.10;99.90;;;;;;5468732;26;20017;-73
2024/04/15 03:02:07;;;;;;;10.43;6.97;;;17.10;99.90;;;;;;5467224;26;19990;-73
2024/04/15 03:04:33;;;;;;;11.07;6.32;;;17.10;99.90;;;;;;5459912;26;20002;-73
2024/04/15 03:06:58;;;;;;;11.85;6.15;;;16.90;99.90;;;;;;5462468;26;20341;-73
2024/04/15 03:09:25;;;;;;;14.20;7.80;;;17.00;99.90;;;;;;5461946;26;19998;-73
2024/04/15 03:11:51;;;;;;;11.95;7.03;;;17.00;99.90;;;;;;5462000;26;20010;-73
2024/04/15 03:14:17;;;;;;;11.05;5.95;;;17.00;99.90;;;;;;5456597;26;20356;-73
2024/04/15 03:16:43;;;;;;;11.50;7.65;;;16.90;99.90;;;;;;5462637;26;20103;-73
2024/04/15 03:19:09;;;;;;;11.57;7.22;;;17.00;99.90;;;;;;5454694;26;20003;-73
2024/04/15 03:21:35;;;;;;;15.55;7.95;;;17.00;99.90;;;;;;5452288;26;20329;-73
2024/04/15 03:24:00;;;;;;;15.25;7.43;;;17.00;99.90;;;;;;5460506;26;20120;-73
2024/04/15 03:26:26;;;;;;;9.75;6.68;;;17.00;99.90;;;;;;5464855;26;20006;-73
2024/04/15 03:28:52;;;;;;;11.25;6.40;;;17.00;99.90;;;;;;5462781;26;20432;-73
2024/04/15 03:31:17;;;;;;;14.07;7.32;;;17.10;99.90;;;;;;5458796;26;20006;-73
2024/04/15 03:33:43;;;;;;;14.52;7.38;;;17.10;99.90;;;;;;5462899;26;20418;-73
2024/04/15 03:36:09;;;;;;;13.10;6.20;;;17.00;99.90;;;;;;5462424;26;21680;-73
2024/04/15 03:38:34;;;;;;;12.57;6.10;;;16.80;99.90;;;;;;5463196;26;20017;-73
2024/04/15 03:41:00;;;;;;;12.05;6.60;;;16.80;99.90;;;;;;5454571;26;20430;-73
2024/04/15 03:43:26;;;;;;;15.43;7.07;;;16.70;99.90;;;;;;5459976;26;20027;-73
2024/04/15 03:45:52;;;;;;;13.45;7.28;;;16.70;99.90;;;;;;5460122;26;20017;-73
2024/04/15 03:48:17;;;;;;;12.85;7.80;;;16.80;99.90;;;;;;5462366;26;20005;-73
2024/04/15 03:50:43;;;;;;;13.40;7.28;;;17.00;99.90;;;;;;5462950;26;20021;-73
2024/04/15 03:53:09;;;;;;;12.30;6.45;;;16.80;99.90;;;;;;5460621;26;20002;-73
2024/04/15 03:55:34;;;;;;;14.50;7.72;;;16.70;99.90;;;;;;5461883;26;20016;-73
2024/04/15 03:58:00;;;;;;;12.73;7.18;;;16.60;99.90;;;;;;5459732;26;20460;-73
2024/04/15 04:00:26;;;;;;;10.88;6.78;;;16.60;99.90;;;;;;5457694;26;20010;-74
2024/04/15 04:02:51;;;;;;;12.95;7.38;;;16.60;99.90;;;;;;5458621;26;20002;-73
2024/04/15 04:05:17;;;;;;;17.35;7.90;;;16.60;99.90;;;;;;5455859;26;20010;-73
2024/04/15 04:07:43;;;;;;;10.90;6.22;;;16.50;99.90;;;;;;5458482;26;19998;-73
2024/04/15 04:10:09;;;;;;;11.93;7.15;;;16.30;99.90;;;;;;5460109;26;20051;-73
2024/04/15 04:12:35;;;;;;;10.35;6.55;;;16.40;99.90;;;;;;5458823;26;21083;-73
2024/04/15 04:15:00;;;;;;;12.23;6.72;;;16.40;99.90;;;;;;5452312;26;20090;-73
2024/04/15 04:17:26;;;;;;;12.48;6.85;;;16.50;99.90;;;;;;5457391;26;20016;-73
2024/04/15 04:19:54;;;;;;;12.65;6.65;;;16.60;99.90;;;;;;5453615;26;20719;-73
2024/04/15 04:22:19;;;;;;;11.20;6.60;;;16.50;99.90;;;;;;5449356;26;20357;-73
2024/04/15 04:24:45;;;;;;;15.02;7.10;;;16.40;99.90;;;;;;5455149;26;20095;-73
2024/04/15 04:27:11;;;;;;;16.88;8.32;;;16.30;99.90;;;;;;5456188;26;20002;-73
2024/04/15 04:29:36;;;;;;;11.60;6.88;;;16.40;99.90;;;;;;5458341;26;20574;-73
2024/04/15 04:32:02;;;;;;;10.48;6.65;;;16.30;99.90;;;;;;5457205;26;20030;-74
2024/04/15 04:34:29;;;;;;;12.77;6.85;;;16.30;99.90;;;;;;5455580;26;20006;-73
2024/04/15 04:36:54;;;;;;;12.50;7.47;;;16.30;99.90;;;;;;5459137;26;20005;-73
2024/04/15 04:39:20;;;;;;;13.02;7.35;;;16.50;99.90;;;;;;5458124;26;20846;-73
2024/04/15 04:41:46;;;;;;;16.67;7.68;;;16.40;99.90;;;;;;5455697;26;20009;-73
2024/04/15 04:44:11;;;;;;;9.52;5.78;;;16.50;99.90;;;;;;5453997;26;20010;-73
2024/04/15 04:46:37;;;;;;;10.52;6.18;;;16.80;99.90;;;;;;5458249;26;20010;-73
2024/04/15 04:49:02;;;;;;;10.27;5.50;;;16.80;99.90;;;;;;5457391;26;20005;-73
2024/04/15 04:51:28;;;;;;;18.70;6.28;;;16.80;99.90;;;;;;5455769;26;20013;-73
2024/04/15 04:53:54;;;;;;;12.02;6.40;;;16.80;99.90;;;;;;5457322;26;20102;-73
2024/04/15 04:56:19;;;;;;;15.35;6.43;;;16.80;99.90;;;;;;5456128;26;19994;-73
2024/04/15 04:58:48;;;;;;;13.68;6.88;;;16.70;99.90;;;;;;5456085;26;20452;-73
2024/04/15 05:01:16;;;;;;;9.77;5.20;;;16.70;99.90;;;;;;5460066;26;20394;-73
2024/04/15 05:03:47;;;;;;;14.10;5.90;;;16.60;99.90;;;;;;5456972;26;20002;-73
2024/04/15 05:06:15;;;;;;;16.77;6.88;;;16.50;99.90;;;;;;5455251;26;20271;-73
2024/04/15 05:08:40;;;;;;;12.38;6.55;;;16.40;99.90;;;;;;5458624;26;21705;-73
2024/04/15 05:11:06;;;;;;;11.93;6.22;;;16.50;99.90;;;;;;5456055;26;20437;-73
2024/04/15 05:13:33;;;;;;;12.32;6.45;;;16.30;99.90;;;;;;5456296;26;20928;-73
2024/04/15 05:16:13;;;;;;;17.27;6.32;;;16.40;99.90;;;;;;5460539;26;20091;-73
2024/04/15 05:18:40;;;;;;;9.57;5.80;;;16.50;99.90;;;;;;5456675;26;20023;-73
2024/04/15 05:21:12;;;;;;;14.48;6.30;;;16.50;99.90;;;;;;5460857;26;20021;-73
2024/04/15 05:23:38;;;;;;;13.45;6.03;;;16.60;99.90;;;;;;5457077;26;20006;-72
2024/04/15 05:26:04;;;;;;;12.50;5.55;;;16.60;99.90;;;;;;5455329;26;20077;-73
2024/04/15 05:28:29;;;;;;;12.68;5.70;;;16.70;99.90;;;;;;5457062;26;20048;-74
2024/04/15 05:30:56;;;;;;;9.90;5.60;;;16.70;99.90;;;;;;5459850;26;20006;-74
2024/04/15 05:33:22;;;;;;;12.02;5.65;;;16.60;99.90;;;;;;5459058;26;20006;-73
2024/04/15 05:35:48;;;;;;;10.68;5.90;;;16.60;99.90;;;;;;5459341;26;20010;-72
2024/04/15 05:38:15;;;;;;;11.73;6.18;;;16.50;99.90;;;;;;5455428;26;20360;-73
2024/04/15 05:40:41;;;;;;;9.90;6.43;;;16.50;99.90;;;;;;5452353;26;20017;-73
2024/04/15 05:43:10;;;;;;;13.57;6.78;;;16.60;99.90;;;;;;5457610;26;20025;-74
2024/04/15 05:45:36;;;;;;;11.55;6.68;;;16.50;99.90;;;;;;5458609;26;20006;-73
2024/04/15 05:48:03;;;;;;;13.20;6.43;;;16.30;99.90;;;;;;5457070;26;20081;-73
2024/04/15 05:50:29;;;;;;;8.70;5.15;;;16.40;99.90;;;;;;5457081;26;20021;-73
2024/04/15 05:52:55;;;;;;;12.30;6.60;;;16.50;99.90;;;;;;5457579;26;20021;-73
2024/04/15 05:55:21;;;;;;;10.55;6.95;;;16.60;99.90;;;;;;5457736;26;20013;-72
2024/04/15 05:57:46;;;;;;;9.80;5.53;;;16.80;99.90;;;;;;5457913;26;20057;-72
2024/04/15 06:00:13;;;;;;;12.50;5.60;;;16.70;99.90;;;;;;5457571;26;20010;-73
2024/04/15 06:02:39;;;;;;;8.05;4.93;;;16.80;99.90;;;;;;5457256;26;20024;-72
2024/04/15 06:05:05;;;;;;;10.35;5.43;;;16.90;99.90;;;;;;5453915;26;20006;-74
2024/04/15 06:07:30;;;;;;;10.85;6.13;;;17.00;99.90;;;;;;5455400;26;20685;-73
2024/04/15 06:09:56;;;;;;;10.80;5.85;;;16.90;99.90;;;;;;5458142;26;20069;-73
2024/04/15 06:12:22;;;;;;;8.73;5.65;;;16.90;99.90;;;;;;5457822;26;20659;-73
2024/04/15 06:14:48;;;;;;;10.00;6.10;;;17.10;99.90;;;;;;5454806;26;20051;-73
2024/04/15 06:17:14;;;;;;;9.63;6.00;;;17.20;99.90;;;;;;5456729;26;20622;-73
2024/04/15 06:19:40;;;;;;;8.55;5.40;;;17.10;99.90;;;;;;5455883;26;20090;-73
2024/04/15 06:22:06;;;;;;;11.48;5.60;;;17.10;99.90;;;;;;5456034;26;20010;-73
2024/04/15 06:24:32;;;;;;;9.50;5.70;;;17.10;99.90;;;;;;5457510;26;20006;-73
2024/04/15 06:26:57;;;;;;;11.15;6.05;;;17.10;99.90;;;;;;5458202;26;20418;-74
2024/04/15 06:29:24;;;;;;;10.75;6.22;;;17.20;99.90;;;;;;5456273;26;20523;-73
2024/04/15 06:31:50;;;;;;;18.88;6.75;;;17.30;99.90;;;;;;5456768;26;20002;-73
2024/04/15 06:34:19;;;;;;;10.93;6.38;;;17.40;99.90;;;;;;5457395;26;20468;-73
2024/04/15 06:36:46;;;;;;;9.35;5.90;;;17.30;99.90;;;;;;5457992;26;20794;-73
2024/04/15 06:39:11;;;;;;;9.75;7.05;;;17.30;99.90;;;;;;5456868;26;20017;-73
2024/04/15 06:41:37;;;;;;;11.15;6.20;;;17.30;99.90;;;;;;5456436;26;20005;-73
2024/04/15 06:44:03;;;;;;;16.02;6.78;;;17.50;99.90;;;;;;5457663;26;20013;-73
2024/04/15 06:46:29;;;;;;;11.90;6.30;;;17.50;99.90;;;;;;5452303;26;19998;-73
2024/04/15 06:48:55;;;;;;;13.15;6.50;;;17.60;99.90;;;;;;5449286;26;20007;-74
2024/04/15 06:51:21;;;;;;;11.75;5.40;;;17.60;99.90;;;;;;5449486;26;20005;-73
2024/04/15 06:53:46;;;;;;;13.48;6.75;;;17.70;99.90;;;;;;5451040;26;20054;-73
2024/04/15 06:56:12;;;;;;;12.02;5.88;;;17.80;99.90;;;;;;5450347;26;20819;-73
2024/04/15 06:58:37;;;;;;;10.07;5.95;;;17.90;99.90;;;;;;5447921;26;20021;-75
2024/04/15 07:01:03;;;;;;;12.07;6.07;;;18.10;99.90;;;;;;5451534;26;19995;-74
2024/04/15 07:03:29;;;;;;;10.02;5.45;;;18.30;99.90;;;;;;5451383;26;20009;-73
2024/04/15 07:05:54;;;;;;;10.57;5.28;;;18.50;99.90;;;;;;5450370;26;20343;-73
2024/04/15 07:08:20;;;;;;;10.13;6.63;;;18.50;99.90;;;;;;5449702;26;20356;-73
2024/04/15 07:10:45;;;;;;;9.20;5.15;;;18.60;99.90;;;;;;5451388;26;19994;-74
2024/04/15 07:13:11;;;;;;;11.20;6.18;;;18.50;99.90;;;;;;5449361;26;20006;-73
2024/04/15 07:15:37;;;;;;;10.40;6.15;;;18.50;99.90;;;;;;5450037;26;20006;-76
2024/04/15 07:18:03;;;;;;;12.20;6.80;;;18.60;99.90;;;;;;5452113;26;20014;-74
2024/04/15 07:20:29;;;;;;;12.05;6.78;;;18.50;99.90;;;;;;5450345;26;20083;-74
2024/04/15 07:22:55;;;;;;;10.38;6.40;;;18.60;99.90;;;;;;5451348;26;20002;-76
2024/04/15 07:25:21;;;;;;;16.88;7.68;;;19.00;99.90;;;;;;5449604;26;20786;-72
2024/04/15 07:27:46;;;;;;;17.75;7.40;;;19.30;99.90;;;;;;5438662;26;20002;-73
2024/04/15 07:30:12;;;;;;;17.23;7.00;;;19.40;99.90;;;;;;5448165;26;20010;-72
2024/04/15 07:32:38;;;;;;;11.75;6.80;;;19.40;99.90;;;;;;5448013;26;20003;-72
2024/04/15 07:35:04;;;;;;;11.32;6.40;;;19.10;99.90;;;;;;5452399;26;20016;-73
2024/04/15 07:37:30;;;;;;;12.98;7.60;;;18.90;99.90;;;;;;5451410;26;19998;-73
2024/04/15 07:39:56;;;;;;;11.30;6.50;;;18.80;99.90;;;;;;5453126;26;20038;-72
2024/04/15 07:42:22;;;;;;;12.98;6.35;;;18.80;99.90;;;;;;5452465;26;20937;-72
2024/04/15 07:44:48;;;;;;;13.77;6.47;;;18.60;99.90;;;;;;5451579;26;20078;-73
2024/04/15 07:47:14;;;;;;;11.98;6.72;;;18.40;99.90;;;;;;5451038;26;20018;-73
2024/04/15 07:49:40;;;;;;;14.20;7.30;;;18.70;99.90;;;;;;5451805;26;19998;-73
2024/04/15 07:52:06;;;;;;;8.88;5.55;;;18.60;99.90;;;;;;5451049;26;20393;-73
2024/04/15 07:54:32;;;;;;;14.63;6.97;;;18.60;99.90;;;;;;5453450;26;20009;-73
2024/04/15 07:56:58;;;;;;;11.05;6.75;;;18.50;99.90;;;;;;5451736;26;20078;-73
2024/04/15 07:59:24;;;;;;;14.90;7.88;;;18.60;99.90;;;;;;5450334;26;20376;-73
2024/04/15 08:01:49;;;;;;;18.75;7.47;;;18.60;99.90;;;;;;5451178;26;20010;-73
2024/04/15 08:04:15;;;;;;;14.20;8.27;;;18.80;99.90;;;;;;5453648;26;20539;-73
2024/04/15 08:06:41;;;;;;;18.60;6.80;;;18.50;99.90;;;;;;5452415;26;20456;-73
2024/04/15 08:09:07;;;;;;;15.40;7.47;;;18.70;99.90;;;;;;5453781;26;20417;-73
2024/04/15 08:11:33;;;;;;;14.63;7.03;;;18.90;99.90;;;;;;5452578;26;20038;-73
2024/04/15 08:14:00;;;;;;;16.02;7.05;;;19.00;99.90;;;;;;5452204;26;20006;-73
2024/04/15 08:16:25;;;;;;;12.13;6.40;;;19.00;99.90;;;;;;5450373;26;20050;-73
2024/04/15 08:18:51;;;;;;;10.98;6.25;;;19.20;99.90;;;;;;5451658;26;20090;-73
2024/04/15 08:21:16;;;;;;;12.55;6.20;;;19.10;99.90;;;;;;5452035;26;20006;-74
2024/04/15 08:23:44;;;;;;;16.25;6.40;;;19.10;99.90;;;;;;5451091;26;21138;-73
2024/04/15 08:26:10;;;;;;;15.40;6.95;;;19.20;99.90;;;;;;5451285;26;20002;-73
2024/04/15 08:28:36;;;;;;;14.85;7.10;;;19.30;99.90;;;;;;5452574;26;20745;-73
2024/04/15 08:31:01;;;;;;;10.45;6.22;;;19.20;99.90;;;;;;5449967;26;20046;-73
2024/04/15 08:33:27;;;;;;;10.95;6.43;;;19.20;99.90;;;;;;5451823;26;20014;-74
2024/04/15 08:35:53;;;;;;;17.23;7.20;;;19.30;99.90;;;;;;5453719;26;20008;-73
2024/04/15 08:38:18;;;;;;;13.05;6.47;;;19.50;99.90;;;;;;5450176;26;20002;-74
2024/04/15 08:41:14;;;;;;;9.85;6.07;;;19.70;99.90;;;;;;5452193;26;20049;-73
2024/04/15 08:43:41;;;;;;;11.93;6.85;;;20.30;99.90;;;;;;5448413;26;20002;-73
2024/04/15 08:46:12;;;;;;;10.40;6.05;;;20.70;99.90;;;;;;5450144;26;20415;-73
2024/04/15 08:48:38;;;;;;;10.15;5.90;;;20.90;99.90;;;;;;5449903;26;20010;-73
2024/04/15 08:51:04;;;;;;;11.38;6.80;;;21.00;99.90;;;;;;5450885;26;20816;-73
2024/04/15 08:53:30;;;;;;;13.50;6.38;;;20.80;99.90;;;;;;5451706;26;20006;-74
2024/04/15 08:55:55;;;;;;;11.80;6.53;;;20.70;99.90;;;;;;5453980;26;21485;-72
2024/04/15 08:58:23;;;;;;;17.98;6.90;;;20.90;99.90;;;;;;5450081;26;20006;-73
2024/04/15 09:00:49;;;;;;;13.98;7.15;;;20.90;99.90;;;;;;5451082;26;20002;-72
2024/04/15 09:03:15;;;;;;;11.18;6.50;;;21.10;99.90;;;;;;5453070;26;20360;-73
2024/04/15 09:05:41;;;;;;;12.55;6.88;;;21.10;99.90;;;;;;5451463;26;20002;-72
2024/04/15 09:08:08;;;;;;;11.30;5.55;;;21.10;99.90;;;;;;5448459;26;20009;-73
2024/04/15 09:10:33;;;;;;;13.27;6.63;;;21.00;99.90;;;;;;5451145;26;20016;-73
2024/04/15 09:13:01;;;;;;;11.15;5.70;;;21.20;99.90;;;;;;5449363;26;20552;-74
2024/04/15 09:15:27;;;;;;;12.00;7.05;;;21.30;99.90;;;;;;5449594;26;19998;-72
2024/04/15 09:17:56;;;;;;;11.02;6.82;;;21.10;99.90;;;;;;5449907;26;20017;-73
2024/04/15 09:20:22;;;;;;;13.55;7.25;;;20.80;99.90;;;;;;5447892;26;20499;-73
2024/04/15 09:22:48;;;;;;;10.65;7.15;;;20.50;99.90;;;;;;5448769;26;20021;-73
2024/04/15 09:25:14;;;;;;;12.95;6.50;;;20.60;99.90;;;;;;5453218;26;20006;-73
2024/04/15 09:27:40;;;;;;;13.63;6.57;;;20.50;99.90;;;;;;5450226;26;20913;-73
2024/04/15 09:30:07;;;;;;;11.60;7.20;;;20.60;99.90;;;;;;5450540;26;20014;-73
2024/04/15 09:32:34;;;;;;;12.52;7.20;;;20.70;99.90;;;;;;5452789;26;20013;-73
2024/04/15 09:35:02;;;;;;;11.80;6.82;;;20.70;99.90;;;;;;5452566;26;19994;-72
2024/04/15 09:37:31;;;;;;;9.55;6.20;;;20.80;99.90;;;;;;5450409;26;20806;-73
2024/04/15 09:39:57;;;;;;;15.23;9.23;;;21.00;99.90;;;;;;5450495;26;20006;-73
2024/04/15 09:42:24;;;;;;;11.90;7.70;;;20.90;99.90;;;;;;5451605;26;20006;-73
2024/04/15 09:44:50;;;;;;;12.32;6.70;;;20.80;99.90;;;;;;5451040;26;20332;-73
2024/04/15 09:47:17;;;;;;;13.63;6.75;;;20.90;99.90;;;;;;5450517;26;20010;-73
2024/04/15 09:49:46;;;;;;;15.27;6.05;;;20.90;99.90;;;;;;5450542;26;20001;-73
2024/04/15 09:52:31;;;;;;;15.57;7.60;;;21.20;99.90;;;;;;5451138;26;20006;-73
2024/04/15 09:55:07;;;;;;;11.68;7.28;;;21.40;99.90;;;;;;5451083;26;19994;-72
2024/04/15 09:57:43;;;;;;;9.60;6.68;;;21.10;99.90;;;;;;5449312;26;20036;-72
2024/04/15 10:00:14;;;;;;;18.40;7.97;;;21.30;99.90;;;;;;5447250;26;20018;-73
2024/04/15 10:03:06;;;;;;;14.73;8.07;;;21.20;99.90;;;;;;5450284;26;20002;-73
2024/04/15 10:05:34;;;;;;;12.68;7.03;;;21.30;99.90;;;;;;5446484;26;20074;-72
2024/04/15 10:08:00;;;;;;;11.38;7.30;;;21.30;99.90;;;;;;5450689;26;20776;-73
2024/04/15 10:10:27;;;;;;;11.52;6.68;;;21.70;99.90;;;;;;5452049;26;20104;-73
2024/04/15 10:12:55;;;;;;;15.93;7.38;;;21.70;99.90;;;;;;5450024;26;19998;-73
2024/04/15 10:15:23;;;;;;;10.10;6.75;;;21.50;99.90;;;;;;5451240;26;20002;-73
2024/04/15 10:18:01;;;;;;;13.27;5.63;;;21.70;99.90;;;;;;5451095;26;20385;-74
2024/04/15 10:20:36;;;;;;;8.98;5.32;;;21.80;99.90;;;;;;5451061;26;20021;-73
2024/04/15 10:23:07;;;;;;;17.98;6.50;;;21.90;99.90;;;;;;5449839;26;20007;-73
2024/04/15 10:25:35;;;;;;;14.02;6.60;;;21.90;99.90;;;;;;5449461;26;20005;-73
2024/04/15 10:28:01;;;;;;;12.75;6.38;;;21.80;99.90;;;;;;5449508;26;21700;-73
2024/04/15 10:30:29;;;;;;;15.50;6.47;;;22.00;99.90;;;;;;5449214;26;20002;-73
2024/04/15 10:32:59;;;;;;;15.68;6.30;;;22.30;99.90;;;;;;5447173;26;20018;-73
2024/04/15 10:35:26;;;;;;;14.30;6.63;;;22.40;99.90;;;;;;5450011;26;20013;-74
2024/04/15 10:37:59;;;;;;;11.13;6.28;;;22.50;99.90;;;;;;5449383;26;20006;-73
2024/04/15 10:40:44;;;;;;;10.60;6.07;;;22.50;99.90;;;;;;5451664;26;20000;-75
2024/04/15 10:43:12;;;;;;;13.85;6.65;;;22.60;99.90;;;;;;5450518;26;20075;-73
2024/04/15 10:45:38;;;;;;;14.52;6.63;;;22.50;99.90;;;;;;5450036;26;20792;-74
2024/04/15 10:48:04;;;;;;;9.05;5.68;;;22.60;99.90;;;;;;5449140;26;20010;-73
2024/04/15 10:50:30;;;;;;;12.68;6.35;;;22.80;99.90;;;;;;5451859;26;20083;-74
2024/04/15 10:52:56;;;;;;;10.48;6.50;;;23.00;99.90;;;;;;5449322;26;20360;-73
2024/04/15 10:55:21;;;;;;;11.77;5.82;;;23.00;99.90;;;;;;5450613;26;20005;-73
2024/04/15 10:57:49;;;;;;;14.13;7.35;;;23.00;99.90;;;;;;5450802;26;20078;-74
2024/04/15 11:00:16;;;;;;;9.95;5.47;;;23.10;99.90;;;;;;5449452;26;20010;-73
2024/04/15 11:02:43;;;;;;;11.20;6.63;;;23.00;99.80;;;;;;5450373;26;20006;-73
2024/04/15 11:05:13;;;;;;;9.38;5.45;;;22.80;98.30;;;;;;5453708;26;19998;-74
2024/04/15 11:07:40;;;;;;;9.25;5.03;;;22.70;98.10;;;;;;5453424;26;20021;-73
2024/04/15 11:10:07;;;;;;;8.15;4.50;;;22.80;98.40;;;;;;5453751;26;21047;-73
2024/04/15 11:12:34;;;;;;;10.77;4.28;;;22.80;98.20;;;;;;5456256;26;20017;-74
2024/04/15 11:14:59;;;;;;;9.38;4.72;;;23.00;98.00;;;;;;5456195;26;20404;-74
2024/04/15 11:17:25;;;;;;;8.73;4.40;;;23.30;98.40;;;;;;5456210;26;20021;-74
2024/04/15 11:20:09;;;;;;;10.85;4.93;;;23.40;97.70;;;;;;5457269;26;20006;-74
2024/04/15 11:22:35;;;;;;;6.20;3.58;;;23.00;97.30;;;;;;5455522;26;21007;-74
2024/04/15 11:25:01;;;;;;;8.60;3.65;;;23.00;96.70;;;;;;5457800;26;20056;-74
2024/04/15 11:27:31;;;;;;;14.65;4.03;;;23.50;97.10;;;;;;5455746;26;20083;-74
2024/04/15 11:29:58;;;;;;;9.43;4.30;;;23.90;97.70;;;;;;5453971;26;20006;-74
2024/04/15 11:32:26;;;;;;;6.40;3.45;;;24.00;96.50;;;;;;5457598;26;20006;-75
2024/04/15 11:34:52;;;;;;;8.75;3.90;;;24.00;95.80;;;;;;5454461;26;20006;-73
2024/04/15 11:37:18;;;;;;;6.05;3.40;;;23.80;94.80;;;;;;5453137;26;20021;-74
2024/04/15 11:39:43;;;;;;;6.63;4.05;;;23.90;95.30;;;;;;5453050;26;20551;-73
2024/04/15 11:42:09;;;;;;;9.23;3.58;;;23.90;95.60;;;;;;5451304;26;20033;-74
2024/04/15 11:44:35;;;;;;;6.68;3.17;;;24.00;96.30;;;;;;5451084;26;20017;-74
2024/04/15 11:47:01;;;;;;;5.38;3.35;;;23.80;95.00;;;;;;5456303;26;20002;-74
2024/04/15 11:49:27;;;;;;;9.32;3.05;;;24.00;94.40;;;;;;5451705;26;20002;-73
2024/04/15 11:51:53;;;;;;;7.97;2.97;;;24.10;94.10;;;;;;5453428;26;20952;-73
2024/04/15 11:54:19;;;;;;;10.13;3.35;;;24.30;94.10;;;;;;5453682;26;19990;-72
2024/04/15 11:56:45;;;;;;;12.27;3.03;;;24.20;93.90;;;;;;5453334;26;20010;-73
2024/04/15 11:59:10;;;;;;;7.15;3.58;;;24.10;93.80;;;;;;5451778;26;20086;-74
2024/04/15 12:01:36;;;;;;;8.18;3.25;;;24.20;94.30;;;;;;5452283;26;20082;-74
2024/04/15 12:04:02;;;;;;;6.28;3.00;;;24.10;93.70;;;;;;5450829;26;20014;-73
2024/04/15 12:06:28;;;;;;;4.85;2.40;;;24.20;93.70;;;;;;5447792;26;20082;-73
2024/04/15 12:08:53;;;;;;;10.00;3.10;;;24.20;94.20;;;;;;5451639;26;19997;-73
2024/04/15 12:11:21;;;;;;;13.10;3.90;;;24.10;93.50;;;;;;5452228;26;20025;-73
2024/04/15 12:13:50;;;;;;;10.80;2.90;;;24.10;93.50;;;;;;5450496;26;20001;-74
2024/04/15 12:16:16;;;;;;;10.07;2.83;;;24.10;93.10;;;;;;5452313;26;20053;-74
2024/04/15 12:18:41;;;;;;;6.78;2.78;;;24.00;92.80;;;;;;5454018;26;20010;-74
2024/04/15 12:21:07;;;;;;;8.18;3.03;;;23.70;92.20;;;;;;5452166;26;20038;-73
2024/04/15 12:23:32;;;;;;;8.95;3.58;;;23.70;92.50;;;;;;5452799;26;20038;-73
2024/04/15 12:25:59;;;;;;;8.35;2.67;;;23.70;92.50;;;;;;5451016;26;20006;-74
2024/04/15 12:28:25;;;;;;;9.10;2.90;;;23.80;92.60;;;;;;5453699;26;19994;-73
2024/04/15 12:30:50;;;;;;;8.93;2.78;;;23.80;93.30;;;;;;5453411;26;20021;-72
2024/04/15 12:33:16;;;;;;;11.15;4.45;;;23.70;93.50;;;;;;5451109;26;20002;-71
2024/04/15 12:35:45;;;;;;;9.10;3.60;;;23.70;93.30;;;;;;5449555;26;21206;-72